Time;durP1;ratioP1;P1;durP2;ratioP2;P2;SDS_P1;SDS_P2;PMS_P1;PMS_P2;Temp;Humidity;BMP_temperature;BMP_pressure;BME280_temperature;BME280_humidity;BME280_pressure;Samples;Min_cycle;Max_cycle;Signal;HPM_P1;HPM_P2
2021/09/22 00:00:51;;;;;;;17.05;12.73;;;;;;;9.87;100.00;99373.12;2184472;81;20977;-87
2021/09/22 00:03:52;;;;;;;17.62;13.13;;;;;;;9.90;100.00;99370.70;2184549;81;21511;-87
2021/09/22 00:06:53;;;;;;;16.00;12.28;;;;;;;9.92;100.00;99371.36;2184531;81;20984;-87
2021/09/22 00:09:54;;;;;;;17.23;12.03;;;;;;;9.89;100.00;99369.07;2184127;81;21452;-88
2021/09/22 00:12:55;;;;;;;13.80;10.82;;;;;;;9.82;100.00;99364.95;2185144;81;21470;-88
2021/09/22 00:15:55;;;;;;;15.15;12.35;;;;;;;9.79;100.00;99361.84;2184423;81;20917;-87
2021/09/22 00:18:56;;;;;;;15.98;12.37;;;;;;;9.75;100.00;99354.79;2184516;81;21008;-87
2021/09/22 00:21:57;;;;;;;15.72;11.65;;;;;;;9.77;100.00;99352.02;2184544;81;21003;-87
2021/09/22 00:24:58;;;;;;;15.10;11.50;;;;;;;9.78;100.00;99354.46;2184449;81;20953;-87
2021/09/22 00:27:59;;;;;;;14.70;11.88;;;;;;;9.77;100.00;99348.91;2184035;81;21087;-87
2021/09/22 00:30:59;;;;;;;17.20;11.80;;;;;;;9.75;100.00;99347.44;2184412;81;21048;-87
2021/09/22 00:34:00;;;;;;;12.70;10.98;;;;;;;9.75;100.00;99345.64;2153395;81;21036;-87
2021/09/22 00:37:04;;;;;;;15.43;10.95;;;;;;;9.76;100.00;99343.84;2184469;81;20952;-86
2021/09/22 00:40:04;;;;;;;12.43;9.75;;;;;;;9.73;100.00;99347.59;2184220;81;21071;-86
2021/09/22 00:43:04;;;;;;;14.30;10.82;;;;;;;9.72;100.00;99338.61;2184676;81;21475;-86
2021/09/22 00:46:05;;;;;;;13.65;10.85;;;;;;;9.71;100.00;99343.02;2184486;81;20980;-87
2021/09/22 00:49:06;;;;;;;12.35;10.25;;;;;;;9.68;100.00;99336.29;2184650;81;20968;-87
2021/09/22 00:52:07;;;;;;;11.93;9.63;;;;;;;9.65;100.00;99335.80;2184409;81;20984;-86
2021/09/22 00:55:08;;;;;;;12.30;9.85;;;;;;;9.58;100.00;99329.56;2184605;81;21511;-86
2021/09/22 00:58:09;;;;;;;14.70;10.43;;;;;;;9.54;100.00;99334.30;2184293;81;21112;-87
2021/09/22 01:01:10;;;;;;;13.30;10.35;;;;;;;9.48;100.00;99330.18;2184383;81;21040;-87
2021/09/22 01:04:11;;;;;;;10.78;9.53;;;;;;;9.41;100.00;99324.75;2184614;81;21552;-87
2021/09/22 01:07:12;;;;;;;12.75;10.45;;;;;;;9.36;100.00;99323.93;2184375;81;21009;-87
2021/09/22 01:10:13;;;;;;;14.13;12.00;;;;;;;9.33;100.00;99320.33;2184491;81;21040;-88
2021/09/22 01:13:14;;;;;;;14.05;12.03;;;;;;;9.33;100.00;99320.33;2184406;81;20997;-88
2021/09/22 01:16:14;;;;;;;15.60;12.73;;;;;;;9.28;100.00;99309.52;2184476;81;21056;-89
2021/09/22 01:19:15;;;;;;;16.40;12.40;;;;;;;9.28;100.00;99309.52;2184602;81;21064;-87
2021/09/22 01:22:18;;;;;;;18.52;12.75;;;;;;;9.30;100.00;99311.97;2184470;81;20984;-88
2021/09/22 01:25:19;;;;;;;14.95;12.00;;;;;;;9.31;100.00;99310.98;2184308;81;21040;-88
2021/09/22 01:28:19;;;;;;;14.78;12.07;;;;;;;9.30;100.00;99308.05;2184364;81;21468;-88
2021/09/22 01:31:20;;;;;;;16.55;11.75;;;;;;;9.27;100.00;99311.80;2184451;81;20987;-87
2021/09/22 01:34:21;;;;;;;17.37;13.55;;;;;;;9.27;100.00;99304.45;2184735;81;21076;-87
2021/09/22 01:37:22;;;;;;;17.40;12.40;;;;;;;9.26;100.00;99304.94;2184478;81;20995;-87
2021/09/22 01:40:23;;;;;;;16.32;12.25;;;;;;;9.26;100.00;99298.41;2184618;81;21095;-88
2021/09/22 01:43:24;;;;;;;16.55;12.10;;;;;;;9.26;100.00;99298.41;2184344;81;21108;-86
2021/09/22 01:46:24;;;;;;;16.02;12.85;;;;;;;9.27;100.00;99297.92;2184909;81;21091;-89
2021/09/22 01:49:25;;;;;;;16.90;13.30;;;;;;;9.25;100.00;99303.80;2184314;81;21023;-87
2021/09/22 01:52:26;;;;;;;17.27;13.93;;;;;;;9.26;100.00;99298.90;2184482;81;22080;-87
2021/09/22 01:55:27;;;;;;;18.77;13.43;;;;;;;9.25;100.00;99299.39;2184361;81;21003;-88
2021/09/22 01:58:28;;;;;;;21.55;13.85;;;;;;;9.23;100.00;99286.94;2184342;81;21053;-88
2021/09/22 02:01:29;;;;;;;19.23;13.90;;;;;;;9.31;100.00;99294.81;2184479;81;21048;-88
2021/09/22 02:04:30;;;;;;;19.37;14.10;;;;;;;9.31;100.00;99283.55;2184552;81;20993;-87
2021/09/22 02:07:31;;;;;;;17.50;14.07;;;;;;;9.25;100.00;99287.63;2184334;81;21087;-88
2021/09/22 02:10:32;;;;;;;15.65;11.33;;;;;;;9.24;100.00;99283.87;2184641;81;21008;-87
2021/09/22 02:13:33;;;;;;;15.83;12.63;;;;;;;9.23;100.00;99283.02;2184644;81;21044;-88
2021/09/22 02:16:34;;;;;;;16.73;12.05;;;;;;;9.23;100.00;99275.19;2184681;81;21436;-87
2021/09/22 02:19:35;;;;;;;17.05;12.33;;;;;;;9.20;100.00;99273.39;2184692;81;20996;-88
2021/09/22 02:22:35;;;;;;;15.78;11.60;;;;;;;9.15;100.00;99273.88;2184565;81;20925;-88
2021/09/22 02:25:36;;;;;;;15.00;10.35;;;;;;;9.13;100.00;99262.24;2184629;81;20989;-88
2021/09/22 02:28:37;;;;;;;16.82;11.48;;;;;;;9.13;100.00;99261.43;2184745;81;21143;-88
2021/09/22 02:31:38;;;;;;;13.50;12.05;;;;;;;9.09;100.00;99266.65;2184659;81;20981;-87
2021/09/22 02:34:39;;;;;;;12.47;9.78;;;;;;;9.07;100.00;99268.12;2184923;81;21483;-89
2021/09/22 02:37:39;;;;;;;14.43;11.55;;;;;;;9.02;100.00;99268.24;2184525;81;21009;-87
2021/09/22 02:40:40;;;;;;;14.83;11.03;;;;;;;8.97;100.00;99266.60;2184627;81;21041;-87
2021/09/22 02:43:41;;;;;;;14.65;10.78;;;;;;;8.96;100.00;99266.24;2184642;81;21525;-89
2021/09/22 02:46:42;;;;;;;14.98;10.82;;;;;;;8.93;100.00;99267.38;2184620;81;21064;-87
2021/09/22 02:49:43;;;;;;;15.50;11.53;;;;;;;8.91;100.00;99268.03;2184773;81;21558;-88
2021/09/22 02:52:44;;;;;;;14.55;11.18;;;;;;;8.90;100.00;99268.19;2184756;81;21012;-87
2021/09/22 02:55:45;;;;;;;14.35;10.95;;;;;;;8.89;100.00;99261.33;2184638;81;21004;-89
2021/09/22 02:58:46;;;;;;;12.28;10.28;;;;;;;8.89;100.00;99260.03;2184551;81;21476;-88
2021/09/22 03:01:46;;;;;;;12.68;9.30;;;;;;;8.90;100.00;99258.56;2184828;81;21538;-88
2021/09/22 03:04:47;;;;;;;9.80;8.23;;;;;;;8.89;100.00;99258.72;2184534;81;21019;-86
2021/09/22 03:07:48;;;;;;;11.30;8.65;;;;;;;8.86;100.00;99253.30;2184659;81;21512;-85
2021/09/22 03:10:49;;;;;;;8.95;7.37;;;;;;;8.85;100.00;99259.50;2184664;81;21055;-85
2021/09/22 03:13:50;;;;;;;11.10;7.72;;;;;;;8.81;100.00;99261.61;2184743;81;20984;-87
2021/09/22 03:16:50;;;;;;;11.22;7.65;;;;;;;8.79;100.00;99259.66;2185187;81;21030;-85
2021/09/22 03:19:51;;;;;;;11.03;9.33;;;;;;;8.79;100.00;99258.83;2186112;81;21547;-86
2021/09/22 03:22:52;;;;;;;12.13;8.00;;;;;;;8.80;100.00;99258.67;2185421;81;20925;-86
2021/09/22 03:25:53;;;;;;;14.83;9.68;;;;;;;8.82;100.00;99244.15;2184721;81;21542;-85
2021/09/22 03:28:53;;;;;;;11.75;8.35;;;;;;;8.84;100.00;99250.03;2184486;81;21009;-87
2021/09/22 03:31:54;;;;;;;13.98;10.20;;;;;;;8.86;100.00;99251.17;2184537;81;21011;-87
2021/09/22 03:34:55;;;;;;;14.53;9.58;;;;;;;8.81;100.00;99245.94;2184564;81;20988;-85
2021/09/22 03:37:56;;;;;;;13.05;10.48;;;;;;;8.82;100.00;99247.58;2184275;81;20997;-85
2021/09/22 03:40:57;;;;;;;11.22;8.93;;;;;;;8.86;100.00;99254.60;2184497;81;21072;-85
2021/09/22 03:43:58;;;;;;;13.90;9.18;;;;;;;8.85;100.00;99251.66;2184615;81;20964;-84
2021/09/22 03:46:59;;;;;;;14.30;10.43;;;;;;;8.86;100.00;99251.99;2184456;81;21079;-83
2021/09/22 03:49:59;;;;;;;10.93;8.55;;;;;;;8.85;100.00;99258.19;2184462;81;20960;-84
2021/09/22 03:53:00;;;;;;;12.47;9.18;;;;;;;8.82;100.00;99254.59;2184429;81;20972;-84
2021/09/22 03:56:01;;;;;;;13.55;8.73;;;;;;;8.86;100.00;99255.09;2184585;81;21015;-85
2021/09/22 03:59:02;;;;;;;10.95;8.43;;;;;;;8.84;100.00;99260.48;2186165;81;20968;-85
2021/09/22 04:02:03;;;;;;;11.55;8.93;;;;;;;8.81;100.00;99261.61;2191615;81;21035;-85
2021/09/22 04:05:03;;;;;;;12.55;9.33;;;;;;;8.81;100.00;99259.00;2191473;81;21046;-84
2021/09/22 04:08:04;;;;;;;11.75;8.63;;;;;;;8.82;100.00;99258.02;2191495;81;21325;-85
2021/09/22 04:11:05;;;;;;;12.33;9.15;;;;;;;8.82;100.00;99265.04;2191271;81;21031;-85
2021/09/22 04:14:06;;;;;;;11.10;9.40;;;;;;;8.85;100.00;99266.02;2191583;81;21001;-84
2021/09/22 04:17:07;;;;;;;17.23;10.60;;;;;;;8.86;100.00;99270.27;2191544;81;21031;-85
2021/09/22 04:20:07;;;;;;;13.68;9.70;;;;;;;8.83;100.00;99262.76;2191397;81;21014;-85
2021/09/22 04:23:08;;;;;;;15.50;10.48;;;;;;;8.81;100.00;99255.57;2191159;81;21016;-84
2021/09/22 04:26:09;;;;;;;13.68;10.80;;;;;;;8.79;100.00;99257.53;2191498;81;21047;-84
2021/09/22 04:29:10;;;;;;;16.55;10.32;;;;;;;8.79;100.00;99261.45;2191465;81;20929;-84
2021/09/22 04:32:11;;;;;;;12.25;8.50;;;;;;;8.78;100.00;99263.73;2191400;81;21042;-83
2021/09/22 04:35:12;;;;;;;12.82;10.20;;;;;;;8.75;100.00;99264.83;2191581;81;20964;-84
2021/09/22 04:38:13;;;;;;;12.70;9.18;;;;;;;8.74;100.00;99265.81;2191540;81;21099;-83
2021/09/22 04:41:14;;;;;;;12.28;9.33;;;;;;;8.68;100.00;99270.81;2191628;81;21519;-83
2021/09/22 04:44:15;;;;;;;12.33;8.40;;;;;;;8.67;100.00;99275.22;2191435;81;20988;-83
2021/09/22 04:47:15;;;;;;;10.35;7.08;;;;;;;8.65;100.00;99286.31;2191634;81;20969;-87
2021/09/22 04:50:16;;;;;;;9.10;7.05;;;;;;;8.59;100.00;99290.01;2191552;81;20999;-87
2021/09/22 04:53:17;;;;;;;6.92;6.25;;;;;;;8.47;100.00;99294.17;2191697;81;21048;-86
2021/09/22 04:56:18;;;;;;;9.10;7.28;;;;;;;8.42;100.00;99297.75;2191583;81;21455;-89
2021/09/22 04:59:19;;;;;;;8.75;7.10;;;;;;;8.36;100.00;99297.52;2190025;81;21028;-85
2021/09/22 05:02:19;;;;;;;9.08;7.75;;;;;;;8.33;100.00;99289.48;2184799;81;21036;-85
2021/09/22 05:05:20;;;;;;;8.23;6.97;;;;;;;8.31;100.00;99294.02;2184844;81;20996;-89
2021/09/22 05:08:21;;;;;;;9.60;7.00;;;;;;;8.33;100.00;99293.40;2184858;81;21061;-87
2021/09/22 05:11:24;;;;;;;9.48;6.22;;;;;;;8.35;100.00;99300.62;2184551;81;20997;-86
2021/09/22 05:14:25;;;;;;;7.60;5.62;;;;;;;8.35;100.00;99298.50;2184560;81;21048;-88
2021/09/22 05:17:25;;;;;;;10.18;6.22;;;;;;;8.38;100.00;99302.09;2185015;81;20969;-88
2021/09/22 05:20:26;;;;;;;8.28;6.10;;;;;;;8.40;100.00;99302.27;2185936;81;21007;-87
2021/09/22 05:23:27;;;;;;;7.90;6.00;;;;;;;8.45;100.00;99304.44;2185477;81;20992;-89
2021/09/22 05:26:28;;;;;;;7.97;6.17;;;;;;;8.47;100.00;99301.19;2184989;81;20984;-88
2021/09/22 05:29:29;;;;;;;7.92;6.85;;;;;;;8.51;100.00;99304.66;2184966;81;21488;-89
2021/09/22 05:32:29;;;;;;;10.18;7.78;;;;;;;8.57;100.00;99310.23;2184884;81;20973;-89
2021/09/22 05:35:30;;;;;;;15.48;11.03;;;;;;;8.62;100.00;99310.61;2186102;81;21021;-84
2021/09/22 05:38:31;;;;;;;10.05;8.00;;;;;;;8.68;100.00;99308.67;2185846;81;21483;-88
2021/09/22 05:41:32;;;;;;;8.48;7.25;;;;;;;8.74;100.00;99317.21;2184817;81;21475;-86
2021/09/22 05:44:33;;;;;;;9.00;7.15;;;;;;;8.81;100.00;99310.41;2184588;81;21019;-85
2021/09/22 05:47:34;;;;;;;9.58;6.12;;;;;;;8.88;100.00;99311.93;2184368;81;20988;-84
2021/09/22 05:50:34;;;;;;;9.60;7.37;;;;;;;8.92;100.00;99315.86;2184479;81;21043;-84
2021/09/22 05:53:35;;;;;;;13.60;9.18;;;;;;;8.98;100.00;99317.86;2184215;81;21027;-85
2021/09/22 05:56:36;;;;;;;19.48;13.38;;;;;;;8.96;100.00;99321.94;2184454;81;20929;-84
2021/09/22 05:59:37;;;;;;;15.95;12.47;;;;;;;8.99;100.00;99326.84;2186162;81;21135;-84
2021/09/22 06:02:38;;;;;;;16.90;11.78;;;;;;;9.07;100.00;99331.30;2191459;81;20948;-84
2021/09/22 06:05:39;;;;;;;12.75;9.95;;;;;;;9.07;100.00;99329.50;2191709;81;21000;-84
2021/09/22 06:08:40;;;;;;;19.62;10.48;;;;;;;9.09;100.00;99333.27;2191427;81;21004;-83
2021/09/22 06:11:40;;;;;;;10.65;8.48;;;;;;;9.20;100.00;99328.26;2191727;81;21046;-83
2021/09/22 06:14:41;;;;;;;13.13;9.05;;;;;;;9.33;100.00;99339.12;2191032;81;21011;-84
2021/09/22 06:17:42;;;;;;;8.70;7.80;;;;;;;9.44;100.00;99336.71;2191274;81;20996;-84
2021/09/22 06:20:43;;;;;;;9.78;8.78;;;;;;;9.55;100.00;99335.94;2191476;81;21027;-84
2021/09/22 06:23:44;;;;;;;9.98;8.85;;;;;;;9.57;100.00;99343.13;2191093;81;21011;-84
2021/09/22 06:26:45;;;;;;;9.18;8.18;;;;;;;9.66;100.00;99342.17;2191334;81;20988;-84
2021/09/22 06:29:45;;;;;;;9.35;8.35;;;;;;;9.87;100.00;99342.23;2191365;81;21000;-84
2021/09/22 06:32:46;;;;;;;10.23;8.43;;;;;;;10.12;100.00;99350.47;2191459;81;21591;-84
2021/09/22 06:35:47;;;;;;;9.93;8.95;;;;;;;10.27;100.00;99346.77;2191124;81;21112;-84
2021/09/22 06:38:48;;;;;;;9.13;8.23;;;;;;;10.36;100.00;99352.83;2191430;81;21031;-85
2021/09/22 06:41:49;;;;;;;7.85;7.00;;;;;;;10.48;100.00;99344.98;2191457;81;20992;-85
2021/09/22 06:44:50;;;;;;;9.33;7.95;;;;;;;10.54;100.00;99363.48;2191276;81;20980;-84
2021/09/22 06:47:51;;;;;;;9.08;7.65;;;;;;;10.54;100.00;99362.66;2191460;81;21023;-84
2021/09/22 06:50:52;;;;;;;7.25;6.60;;;;;;;10.60;100.00;99363.30;2191429;81;21071;-85
2021/09/22 06:53:53;;;;;;;9.60;8.33;;;;;;;10.59;100.00;99363.47;2191750;81;20992;-85
2021/09/22 06:56:54;;;;;;;9.25;8.35;;;;;;;10.59;100.00;99363.47;2191656;81;20929;-84
2021/09/22 06:59:55;;;;;;;10.82;8.58;;;;;;;10.64;100.00;99361.19;2191544;81;21004;-84
2021/09/22 07:02:56;;;;;;;9.23;6.92;;;;;;;10.73;100.00;99360.20;2191643;81;21475;-84
2021/09/22 07:05:56;;;;;;;7.50;6.78;;;;;;;10.74;100.00;99360.03;2192218;81;20960;-85
2021/09/22 07:08:57;;;;;;;8.45;7.15;;;;;;;10.81;100.00;99362.82;2191846;81;21467;-84
2021/09/22 07:11:58;;;;;;;10.80;7.78;;;;;;;10.83;100.00;99369.52;2191765;81;20949;-83
2021/09/22 07:14:59;;;;;;;7.35;6.65;;;;;;;10.85;100.00;99365.91;2191613;81;21020;-83
2021/09/22 07:18:00;;;;;;;7.65;6.47;;;;;;;10.82;100.00;99369.20;2191527;81;20956;-84
2021/09/22 07:21:01;;;;;;;7.70;6.28;;;;;;;10.90;100.00;99378.86;2191330;81;20992;-83
2021/09/22 07:24:03;;;;;;;7.25;6.50;;;;;;;10.94;100.00;99376.71;2191472;81;21056;-83
2021/09/22 07:27:04;;;;;;;8.00;7.20;;;;;;;10.98;100.00;99379.34;2191591;81;21068;-84
2021/09/22 07:30:05;;;;;;;7.40;6.53;;;;;;;11.06;100.00;99380.16;2191631;81;21008;-84
2021/09/22 07:33:06;;;;;;;8.33;7.00;;;;;;;11.30;100.00;99371.41;2191593;81;20988;-84
2021/09/22 07:36:07;;;;;;;11.43;7.58;;;;;;;11.50;100.00;99379.70;2191613;81;21043;-83
2021/09/22 07:39:08;;;;;;;6.12;5.10;;;;;;;11.61;100.00;99378.50;2191488;81;21517;-84
2021/09/22 07:42:12;;;;;;;7.65;5.45;;;;;;;11.59;100.00;99382.61;2191495;81;21043;-84
2021/09/22 07:45:11;;;;;;;5.78;4.67;;;;;;;11.63;100.00;99388.36;2191324;81;21075;-85
2021/09/22 07:48:12;;;;;;;5.17;4.70;;;;;;;11.67;100.00;99389.14;2191567;81;21011;-84
2021/09/22 07:51:13;;;;;;;7.85;5.55;;;;;;;11.71;100.00;99395.38;2191505;81;21003;-83
2021/09/22 07:54:14;;;;;;;5.25;4.75;;;;;;;11.72;100.00;99397.83;2191591;81;21005;-83
2021/09/22 07:57:17;;;;;;;6.83;5.90;;;;;;;11.75;100.00;99403.22;2191617;81;21003;-83
2021/09/22 08:00:17;;;;;;;6.33;4.15;;;;;;;11.77;100.00;99403.86;2189264;81;21111;-84
2021/09/22 08:03:18;;;;;;;4.28;3.60;;;;;;;11.83;100.00;99405.35;2184534;81;21008;-83
2021/09/22 08:06:19;;;;;;;3.62;3.30;;;;;;;12.06;100.00;99405.89;2184669;81;21118;-84
2021/09/22 08:09:20;;;;;;;7.30;6.45;;;;;;;12.19;100.00;99409.60;2184482;81;20945;-83
2021/09/22 08:12:21;;;;;;;10.18;8.15;;;;;;;12.36;100.00;99412.95;2184677;81;21036;-85
2021/09/22 08:15:21;;;;;;;11.70;5.90;;;;;;;12.58;100.00;99412.63;2184442;81;20949;-84
2021/09/22 08:18:22;;;;;;;13.25;7.65;;;;;;;12.64;100.00;99405.87;2184554;81;20988;-84
2021/09/22 08:21:23;;;;;;;9.20;6.72;;;;;;;12.61;100.00;99419.33;2184595;81;21020;-83
2021/09/22 08:24:24;;;;;;;6.45;5.75;;;;;;;12.40;100.00;99424.73;2184491;81;20957;-84
2021/09/22 08:27:25;;;;;;;7.72;6.10;;;;;;;12.23;100.00;99429.75;2184622;81;21567;-84
2021/09/22 08:30:26;;;;;;;7.47;6.67;;;;;;;12.08;100.00;99425.75;2184544;81;20985;-84
2021/09/22 08:33:26;;;;;;;5.75;5.15;;;;;;;12.07;100.00;99426.73;2184603;81;21498;-84
2021/09/22 08:36:27;;;;;;;10.30;6.33;;;;;;;12.16;100.00;99428.34;2184524;81;21007;-83
2021/09/22 08:39:32;;;;;;;7.65;5.97;;;;;;;12.24;100.00;99420.39;2184375;81;20953;-84
2021/09/22 08:42:31;;;;;;;7.65;6.15;;;;;;;12.38;100.00;99424.59;2184766;81;21108;-84
2021/09/22 08:45:34;;;;;;;7.72;5.53;;;;;;;12.43;100.00;99419.13;2184649;81;20969;-83
2021/09/22 08:48:34;;;;;;;6.50;5.53;;;;;;;12.49;100.00;99419.75;2184628;81;21008;-84
2021/09/22 08:51:35;;;;;;;5.37;4.55;;;;;;;12.52;100.00;99427.77;2184509;81;20999;-86
2021/09/22 08:54:36;;;;;;;8.33;5.92;;;;;;;12.55;100.00;99423.50;2184134;81;20964;-82
2021/09/22 08:57:37;;;;;;;5.87;3.98;;;;;;;12.53;100.00;99426.80;2184523;81;21546;-82
2021/09/22 09:00:38;;;;;;;5.58;3.30;;;;;;;12.53;100.00;99427.62;2186842;81;21547;-85
2021/09/22 09:03:42;;;;;;;4.92;4.03;;;;;;;12.40;100.00;99432.61;2191548;81;21510;-85
2021/09/22 09:06:43;;;;;;;4.87;4.12;;;;;;;12.32;100.00;99427.90;2191720;81;21071;-85
2021/09/22 09:09:44;;;;;;;6.83;4.35;;;;;;;12.18;100.00;99431.59;2191491;81;20968;-85
2021/09/22 09:12:44;;;;;;;5.80;5.15;;;;;;;12.03;100.00;99428.55;2191392;81;21004;-84
2021/09/22 09:15:47;;;;;;;6.20;5.45;;;;;;;11.81;100.00;99430.95;2191632;81;20995;-85
2021/09/22 09:18:48;;;;;;;7.65;6.08;;;;;;;11.60;100.00;99428.84;2191443;81;21023;-85
2021/09/22 09:21:49;;;;;;;6.22;4.80;;;;;;;11.55;100.00;99440.83;2191517;81;21068;-85
2021/09/22 09:24:50;;;;;;;6.25;4.87;;;;;;;11.51;100.00;99450.00;2191512;81;21483;-85
2021/09/22 09:27:50;;;;;;;7.55;4.78;;;;;;;11.43;100.00;99446.09;2191483;81;21053;-83
2021/09/22 09:30:51;;;;;;;4.40;3.77;;;;;;;11.46;100.00;99437.41;2191462;81;21482;-83
2021/09/22 09:33:52;;;;;;;5.22;4.33;;;;;;;11.53;100.00;99427.89;2191416;81;21009;-83
2021/09/22 09:36:53;;;;;;;5.08;4.53;;;;;;;11.65;100.00;99430.47;2191401;81;21553;-83
2021/09/22 09:39:54;;;;;;;6.08;4.53;;;;;;;11.84;100.00;99424.53;2191845;81;20929;-83
2021/09/22 09:42:55;;;;;;;6.37;5.00;;;;;;;11.96;100.00;99421.84;2191315;81;21087;-84
2021/09/22 09:45:56;;;;;;;5.45;4.83;;;;;;;12.09;100.00;99426.06;2191487;81;21464;-84
2021/09/22 09:48:57;;;;;;;5.70;4.90;;;;;;;12.27;100.00;99419.25;2191566;81;21479;-83
2021/09/22 09:51:57;;;;;;;5.50;4.67;;;;;;;12.41;100.00;99426.36;2191566;81;20967;-84
2021/09/22 09:54:58;;;;;;;6.05;5.12;;;;;;;12.56;100.00;99423.00;2191487;81;20972;-84
2021/09/22 09:57:59;;;;;;;7.45;4.92;;;;;;;12.71;100.00;99425.17;2191516;81;20980;-84
2021/09/22 10:01:00;;;;;;;4.72;4.33;;;;;;;12.69;100.00;99429.78;2188673;81;21012;-84
2021/09/22 10:04:01;;;;;;;5.65;4.97;;;;;;;12.63;100.00;99426.57;2184441;81;20988;-84
2021/09/22 10:07:02;;;;;;;5.58;5.03;;;;;;;12.66;100.00;99427.52;2184462;81;20984;-84
2021/09/22 10:10:02;;;;;;;6.55;5.08;;;;;;;12.72;100.00;99428.96;2184833;81;21040;-85
2021/09/22 10:13:03;;;;;;;5.70;5.08;;;;;;;12.68;100.00;99436.04;2184304;81;20992;-84
2021/09/22 10:16:04;;;;;;;7.15;5.12;;;;;;;12.66;100.00;99432.28;2184469;81;20953;-84
2021/09/22 10:19:05;;;;;;;5.12;4.72;;;;;;;12.69;100.00;99425.84;2184386;81;20968;-84
2021/09/22 10:22:06;;;;;;;5.00;4.50;;;;;;;12.82;100.00;99428.72;2184457;81;20992;-84
2021/09/22 10:25:06;;;;;;;4.30;3.90;;;;;;;12.89;99.04;99433.56;2184402;81;21052;-84
2021/09/22 10:28:08;;;;;;;7.83;4.65;;;;;;;12.95;99.29;99430.23;2184297;81;21012;-84
2021/09/22 10:31:09;;;;;;;5.37;4.87;;;;;;;13.12;100.00;99424.84;2184547;81;21052;-84
2021/09/22 10:34:10;;;;;;;4.70;4.30;;;;;;;13.21;97.71;99427.25;2184679;81;21017;-83
2021/09/22 10:37:10;;;;;;;4.83;4.42;;;;;;;13.20;98.28;99430.88;2184793;81;21550;-84
2021/09/22 10:40:11;;;;;;;4.75;4.35;;;;;;;13.15;96.34;99431.87;2184636;81;20953;-84
2021/09/22 10:43:12;;;;;;;4.45;4.15;;;;;;;13.08;95.46;99431.78;2184318;81;21087;-83
2021/09/22 10:46:13;;;;;;;4.33;4.03;;;;;;;12.98;93.99;99435.13;2184744;81;21500;-84
2021/09/22 10:49:14;;;;;;;4.60;4.30;;;;;;;12.93;94.46;99430.11;2184680;81;20993;-84
2021/09/22 10:52:15;;;;;;;4.15;3.85;;;;;;;12.91;94.57;99422.91;2184656;81;21099;-84
2021/09/22 10:55:16;;;;;;;5.35;4.47;;;;;;;12.95;94.52;99416.28;2184538;81;21507;-84
2021/09/22 10:58:17;;;;;;;4.60;4.20;;;;;;;13.13;95.11;99424.66;2184203;81;21051;-83
2021/09/22 11:01:18;;;;;;;5.00;4.60;;;;;;;13.07;92.31;99420.11;2184485;81;21005;-84
2021/09/22 11:04:18;;;;;;;4.20;3.80;;;;;;;13.04;93.13;99421.29;2184638;81;20965;-83
2021/09/22 11:07:19;;;;;;;5.10;4.65;;;;;;;12.95;91.60;99421.04;2184572;81;21049;-84
2021/09/22 11:10:20;;;;;;;5.62;5.10;;;;;;;12.84;93.75;99428.54;2184544;81;20960;-84
2021/09/22 11:13:21;;;;;;;5.47;4.95;;;;;;;12.73;93.36;99424.52;2184491;81;21092;-84
2021/09/22 11:16:25;;;;;;;5.80;5.30;;;;;;;12.76;93.60;99416.27;2184612;81;22110;-83
2021/09/22 11:19:25;;;;;;;6.72;6.03;;;;;;;12.86;93.07;99419.97;2184448;81;21095;-83
2021/09/22 11:22:26;;;;;;;8.33;6.17;;;;;;;12.95;93.14;99418.41;2184489;81;20964;-86
2021/09/22 11:25:27;;;;;;;5.55;5.05;;;;;;;13.00;92.70;99412.14;2184620;81;21012;-86
2021/09/22 11:28:27;;;;;;;5.92;5.33;;;;;;;12.97;92.45;99408.53;2184504;81;20977;-85
2021/09/22 11:31:28;;;;;;;7.22;6.08;;;;;;;13.00;94.21;99402.94;2184453;81;21034;-85
2021/09/22 11:34:29;;;;;;;6.72;5.60;;;;;;;13.09;93.22;99399.23;2184455;81;21059;-85
2021/09/22 11:37:30;;;;;;;8.50;5.83;;;;;;;13.29;94.31;99400.06;2184463;81;20975;-86
2021/09/22 11:40:31;;;;;;;4.97;4.47;;;;;;;13.56;92.70;99401.25;2184586;81;21083;-87
2021/09/22 11:43:32;;;;;;;6.20;5.45;;;;;;;13.56;92.70;99401.25;2184461;81;21025;-86
2021/09/22 11:46:33;;;;;;;4.85;4.45;;;;;;;13.60;90.33;99402.00;2184415;81;21055;-86
2021/09/22 11:49:34;;;;;;;3.12;2.92;;;;;;;13.63;91.04;99402.16;2184342;81;20965;-86
2021/09/22 11:52:35;;;;;;;2.80;2.60;;;;;;;13.68;88.90;99405.55;2184264;81;21012;-85
2021/09/22 11:55:35;;;;;;;2.85;2.55;;;;;;;13.53;85.07;99411.65;2184578;81;21496;-86
2021/09/22 11:58:36;;;;;;;3.12;2.92;;;;;;;13.34;85.68;99405.58;2184544;81;21056;-85
2021/09/22 12:01:37;;;;;;;2.77;2.30;;;;;;;13.23;86.70;99409.98;2187286;81;21092;-86
2021/09/22 12:04:38;;;;;;;3.37;2.08;;;;;;;13.14;82.52;99421.53;2191534;81;20960;-86
2021/09/22 12:07:39;;;;;;;3.67;2.08;;;;;;;13.04;83.01;99412.09;2191777;81;21015;-85
2021/09/22 12:10:40;;;;;;;3.30;2.70;;;;;;;12.97;78.39;99430.06;2191625;81;21472;-86
2021/09/22 12:13:41;;;;;;;2.65;2.02;;;;;;;12.86;80.55;99438.38;2191680;81;20991;-87
2021/09/22 12:16:41;;;;;;;4.37;3.17;;;;;;;12.81;80.00;99425.28;2191389;81;20995;-87
2021/09/22 12:19:42;;;;;;;3.25;3.05;;;;;;;12.78;81.07;99430.05;2191400;81;20968;-85
2021/09/22 12:22:43;;;;;;;4.20;3.22;;;;;;;12.76;83.64;99421.03;2191581;81;21055;-86
2021/09/22 12:25:44;;;;;;;3.75;3.50;;;;;;;12.81;83.38;99418.70;2191578;81;20989;-85
2021/09/22 12:28:45;;;;;;;3.10;2.90;;;;;;;12.86;84.02;99416.84;2191772;81;21011;-87
2021/09/22 12:31:45;;;;;;;3.15;2.90;;;;;;;12.89;81.96;99431.44;2191452;81;21045;-86
2021/09/22 12:34:46;;;;;;;3.77;3.40;;;;;;;12.91;82.24;99423.72;2191339;81;21546;-85
2021/09/22 12:37:47;;;;;;;4.42;3.85;;;;;;;13.01;81.97;99415.58;2191397;81;21507;-85
2021/09/22 12:40:48;;;;;;;3.85;3.30;;;;;;;13.10;81.64;99416.64;2191576;81;20980;-85
2021/09/22 12:43:49;;;;;;;5.20;2.85;;;;;;;13.13;79.98;99412.02;2191553;81;21506;-85
2021/09/22 12:46:50;;;;;;;3.33;2.95;;;;;;;13.17;79.19;99407.55;2191374;81;21020;-85
2021/09/22 12:49:51;;;;;;;3.72;3.42;;;;;;;13.17;76.56;99415.44;2191616;81;21550;-86
2021/09/22 12:52:51;;;;;;;2.90;2.35;;;;;;;13.27;80.06;99413.39;2191452;81;21007;-86
2021/09/22 12:55:52;;;;;;;4.17;2.77;;;;;;;13.33;76.34;99411.34;2191375;81;21028;-86
2021/09/22 12:58:53;;;;;;;5.90;3.77;;;;;;;13.34;77.97;99409.52;2191521;81;21498;-85
2021/09/22 13:01:54;;;;;;;3.98;2.67;;;;;;;13.32;74.20;99413.66;2191370;81;21064;-87
2021/09/22 13:04:55;;;;;;;3.27;2.83;;;;;;;13.25;73.47;99411.42;2191463;81;21015;-86
2021/09/22 13:07:56;;;;;;;4.20;3.02;;;;;;;13.21;75.16;99415.92;2193007;81;20953;-85
2021/09/22 13:10:57;;;;;;;3.77;3.30;;;;;;;13.05;73.48;99419.47;2192858;81;21024;-86
2021/09/22 13:13:58;;;;;;;2.85;2.55;;;;;;;12.93;75.44;99430.11;2191652;81;20988;-84
2021/09/22 13:16:59;;;;;;;3.30;2.77;;;;;;;12.88;74.95;99424.55;2191727;81;21132;-86
2021/09/22 13:19:59;;;;;;;3.12;2.92;;;;;;;12.84;75.01;99424.09;2191578;81;21056;-85
2021/09/22 13:23:00;;;;;;;3.55;3.10;;;;;;;12.82;74.79;99424.78;2191172;81;21055;-84
2021/09/22 13:26:01;;;;;;;3.02;2.83;;;;;;;12.80;75.27;99419.70;2191521;81;21500;-86
2021/09/22 13:29:02;;;;;;;3.60;3.30;;;;;;;12.83;75.08;99413.27;2191570;81;21020;-86
2021/09/22 13:32:03;;;;;;;5.30;4.78;;;;;;;12.91;76.87;99412.39;2191506;81;21035;-86
2021/09/22 13:35:04;;;;;;;5.45;3.90;;;;;;;12.96;77.29;99410.03;2191417;81;21007;-85
2021/09/22 13:38:05;;;;;;;4.30;3.90;;;;;;;13.03;78.15;99414.41;2191510;81;21523;-86
2021/09/22 13:41:06;;;;;;;4.30;3.90;;;;;;;12.98;76.60;99414.11;2191508;81;20976;-85
2021/09/22 13:44:06;;;;;;;7.33;4.25;;;;;;;12.92;74.14;99417.46;2192153;81;21522;-85
2021/09/22 13:47:07;;;;;;;5.42;4.70;;;;;;;12.90;76.80;99418.14;2191535;81;21047;-85
2021/09/22 13:50:08;;;;;;;5.50;5.00;;;;;;;12.94;77.41;99414.16;2191531;81;21000;-84
2021/09/22 13:53:09;;;;;;;3.45;3.15;;;;;;;12.97;77.60;99418.23;2191415;81;21008;-85
2021/09/22 13:56:10;;;;;;;4.17;3.37;;;;;;;12.92;76.79;99420.59;2191500;81;21083;-85
2021/09/22 13:59:11;;;;;;;3.55;3.33;;;;;;;12.82;77.30;99420.84;2191740;81;21064;-84
2021/09/22 14:02:12;;;;;;;5.33;4.40;;;;;;;12.72;78.44;99427.64;2191366;81;21028;-85